Time;durP1;ratioP1;P1;durP2;ratioP2;P2;SDS_P1;SDS_P2;PMS_P1;PMS_P2;Temp;Humidity;BMP_temperature;BMP_pressure;BME280_temperature;BME280_humidity;BME280_pressure;Samples;Min_cycle;Max_cycle;Signal;HPM_P1;HPM_P2
2022/04/07 00:02:17;;;;;;;0.70;0.70;;;13.50;64.00;;;12.72;49.19;93424.16;5037356;28;20566;-85
2022/04/07 00:04:45;;;;;;;0.50;0.50;;;13.50;64.20;;;12.80;49.62;93442.16;5035953;28;20321;-85
2022/04/07 00:07:12;;;;;;;0.60;0.60;;;13.40;65.20;;;12.74;49.94;93443.94;5037680;28;20195;-86
2022/04/07 00:09:39;;;;;;;0.50;0.50;;;13.40;64.70;;;12.69;50.50;93437.81;5055650;28;20214;-84
2022/04/07 00:12:07;;;;;;;0.60;0.60;;;13.40;65.90;;;12.65;49.99;93438.28;5037751;28;20195;-85
2022/04/07 00:14:34;;;;;;;0.57;0.57;;;13.30;64.90;;;12.61;50.51;93441.66;5066103;28;20235;-85
2022/04/07 00:17:01;;;;;;;0.50;0.50;;;13.30;65.20;;;12.58;51.06;93450.78;5049802;28;20200;-85
2022/04/07 00:19:28;;;;;;;0.60;0.60;;;13.30;65.30;;;12.57;51.01;93445.78;5019506;28;20219;-85
2022/04/07 00:21:59;;;;;;;0.65;0.65;;;13.20;65.50;;;12.51;50.86;93442.25;5050274;28;20635;-85
2022/04/07 00:24:27;;;;;;;0.50;0.50;;;13.20;65.50;;;12.51;50.93;93444.88;5037891;28;20586;-85
2022/04/07 00:26:54;;;;;;;0.50;0.50;;;13.20;65.50;;;12.53;51.00;93448.09;5048342;28;20216;-85
2022/04/07 00:29:21;;;;;;;0.60;0.60;;;13.20;65.70;;;12.54;50.90;93448.91;5045559;28;20326;-85
2022/04/07 00:31:55;;;;;;;0.60;0.60;;;13.10;65.60;;;12.40;50.92;93433.44;5046361;28;20192;-85
2022/04/07 00:34:23;;;;;;;0.50;0.50;;;13.10;65.80;;;12.51;51.48;93449.38;5059750;28;20238;-85
2022/04/07 00:36:51;;;;;;;0.52;0.52;;;13.10;66.00;;;12.49;51.29;93449.63;5049184;28;20283;-86
2022/04/07 00:39:18;;;;;;;0.50;0.50;;;13.10;66.00;;;12.47;51.30;93441.97;5021318;28;20583;-85
2022/04/07 00:41:45;;;;;;;0.60;0.60;;;13.10;66.00;;;12.47;51.35;93438.53;5050042;28;20192;-86
2022/04/07 00:44:13;;;;;;;0.60;0.60;;;13.10;66.10;;;12.51;51.26;93433.59;5045317;28;20215;-85
2022/04/07 00:46:41;;;;;;;0.60;0.60;;;13.00;66.10;;;12.39;52.42;93445.00;5034708;28;20279;-85
2022/04/07 00:49:10;;;;;;;0.60;0.60;;;13.10;66.60;;;12.49;52.66;93463.53;5044896;28;20252;-85
2022/04/07 00:51:40;;;;;;;0.50;0.50;;;13.10;66.80;;;12.32;52.57;93434.63;5051921;28;20187;-85
2022/04/07 00:54:08;;;;;;;0.60;0.60;;;13.00;66.90;;;12.46;52.72;93460.59;5017954;28;20278;-85
2022/04/07 00:56:36;;;;;;;0.50;0.50;;;13.00;67.00;;;12.44;53.25;93475.84;5033095;28;20233;-84
2022/04/07 00:59:06;;;;;;;0.70;0.70;;;13.10;67.20;;;12.41;52.93;93466.56;5049072;28;20643;-83
2022/04/07 01:01:33;;;;;;;0.50;0.50;;;13.00;67.40;;;12.40;52.69;93470.25;5054703;28;20237;-85
2022/04/07 01:04:02;;;;;;;0.55;0.55;;;13.00;67.10;;;12.36;53.91;93463.84;5035885;28;20218;-85
2022/04/07 01:06:30;;;;;;;0.60;0.60;;;13.10;67.90;;;12.27;54.43;93431.91;5046090;28;20274;-86
2022/04/07 01:08:58;;;;;;;0.60;0.60;;;13.00;67.70;;;12.21;54.33;93432.88;5052990;28;20223;-85
2022/04/07 01:11:26;;;;;;;0.60;0.60;;;12.90;68.00;;;12.10;54.16;93428.50;5037804;28;20195;-85
2022/04/07 01:13:54;;;;;;;0.50;0.50;;;12.90;67.80;;;12.08;54.70;93448.94;5008144;28;20655;-85
2022/04/07 01:16:27;;;;;;;0.70;0.70;;;12.80;67.90;;;12.00;54.81;93444.88;5053484;28;20673;-85
2022/04/07 01:18:57;;;;;;;0.55;0.55;;;12.80;68.80;;;11.98;54.27;93450.34;5036177;28;20219;-85
2022/04/07 01:21:30;;;;;;;0.60;0.60;;;12.70;68.10;;;11.96;54.39;93446.34;5053143;28;20265;-86
2022/04/07 01:24:12;;;;;;;0.60;0.60;;;12.70;68.20;;;11.93;54.71;93447.63;5035098;28;20258;-86
2022/04/07 01:26:44;;;;;;;0.60;0.60;;;12.60;68.60;;;11.91;54.47;93448.88;5067036;28;20216;-86
2022/04/07 01:29:14;;;;;;;0.60;0.60;;;12.50;68.60;;;11.89;54.61;93440.44;5048438;28;20300;-85
2022/04/07 01:31:42;;;;;;;0.50;0.50;;;12.50;68.40;;;11.79;54.59;93417.41;5066622;28;20196;-85
2022/04/07 01:34:16;;;;;;;0.80;0.80;;;12.50;68.40;;;11.83;54.46;93429.84;5059949;28;20582;-85
2022/04/07 01:36:48;;;;;;;0.52;0.52;;;12.50;68.80;;;11.78;54.61;93435.00;5063542;28;20192;-85
2022/04/07 01:39:21;;;;;;;0.50;0.50;;;12.40;68.60;;;11.74;54.62;93441.75;5043993;28;20227;-84
2022/04/07 01:41:50;;;;;;;0.60;0.60;;;12.40;68.60;;;11.65;55.01;93427.41;5052438;28;20748;-84
2022/04/07 01:44:18;;;;;;;0.60;0.60;;;12.40;68.60;;;11.70;55.19;93438.00;5035542;28;20302;-84
2022/04/07 01:46:48;;;;;;;0.70;0.70;;;12.40;68.80;;;11.61;54.92;93427.09;5051842;28;20207;-84
2022/04/07 01:49:16;;;;;;;0.70;0.70;;;12.40;68.70;;;11.66;54.66;93444.78;5069015;28;20227;-84
2022/04/07 01:51:45;;;;;;;0.70;0.70;;;12.30;68.60;;;11.63;55.30;93437.34;5056823;28;20287;-85
2022/04/07 01:54:14;;;;;;;0.60;0.60;;;12.30;68.80;;;11.58;54.78;93429.38;5044016;28;20215;-85
2022/04/07 01:56:43;;;;;;;0.65;0.65;;;12.20;68.70;;;11.58;54.72;93424.91;5052045;28;20220;-85
2022/04/07 01:59:10;;;;;;;0.52;0.52;;;12.20;68.80;;;11.60;54.77;93422.09;5042829;28;20244;-85
2022/04/07 02:01:37;;;;;;;0.60;0.60;;;12.20;68.90;;;11.49;54.87;93411.38;5051960;28;20203;-85
2022/04/07 02:04:04;;;;;;;0.60;0.60;;;12.20;68.90;;;11.56;54.78;93418.31;5047061;28;20278;-84
2022/04/07 02:06:31;;;;;;;0.60;0.60;;;12.20;68.80;;;11.59;54.53;93421.28;5052385;28;20294;-85
2022/04/07 02:08:59;;;;;;;0.63;0.63;;;12.20;68.80;;;11.57;54.65;93417.28;5034396;28;20214;-85
2022/04/07 02:11:28;;;;;;;0.60;0.60;;;12.20;68.80;;;11.57;54.86;93418.09;5036057;28;20199;-85
2022/04/07 02:13:55;;;;;;;0.60;0.60;;;12.20;69.00;;;11.56;54.80;93424.38;5035745;28;20713;-84
2022/04/07 02:16:22;;;;;;;0.70;0.70;;;12.20;68.90;;;11.51;55.10;93411.13;5043788;28;20207;-85
2022/04/07 02:18:50;;;;;;;0.50;0.50;;;12.20;69.00;;;11.52;55.43;93421.44;5052963;28;20231;-84
2022/04/07 02:21:17;;;;;;;0.60;0.60;;;12.10;69.00;;;11.50;55.29;93412.97;5035437;28;20199;-85
2022/04/07 02:23:44;;;;;;;0.50;0.50;;;12.10;69.00;;;11.49;55.18;93400.88;5050576;28;20246;-84
2022/04/07 02:26:13;;;;;;;0.60;0.60;;;12.10;69.00;;;11.50;54.86;93399.84;5051941;28;20273;-86
2022/04/07 02:28:40;;;;;;;0.60;0.60;;;12.10;69.20;;;11.48;54.95;93406.38;5050992;28;20249;-85
2022/04/07 02:31:08;;;;;;;0.60;0.60;;;12.10;69.00;;;11.50;55.03;93405.09;5044250;28;20188;-85
2022/04/07 02:33:37;;;;;;;0.60;0.60;;;12.10;69.10;;;11.49;55.13;93410.59;5047345;28;20196;-85
2022/04/07 02:36:06;;;;;;;0.50;0.50;;;12.10;69.20;;;11.43;54.94;93396.56;5019504;28;20581;-84
2022/04/07 02:38:35;;;;;;;0.60;0.60;;;12.10;69.30;;;11.46;54.77;93403.97;5051700;28;20199;-85
2022/04/07 02:41:03;;;;;;;0.68;0.68;;;12.10;69.30;;;11.45;55.19;93396.31;5033858;28;20291;-85
2022/04/07 02:43:30;;;;;;;0.60;0.60;;;12.10;69.20;;;11.41;55.27;93384.72;5050552;28;20657;-85
2022/04/07 02:45:57;;;;;;;0.70;0.70;;;12.10;69.20;;;11.41;55.30;93388.13;5017500;28;20219;-85
2022/04/07 02:48:24;;;;;;;0.60;0.60;;;12.10;69.30;;;11.36;55.44;93382.78;5033928;28;20195;-85
2022/04/07 02:50:51;;;;;;;0.70;0.70;;;12.10;69.30;;;11.40;55.36;93388.34;5061099;28;20194;-85
2022/04/07 02:53:18;;;;;;;0.57;0.57;;;12.10;69.30;;;11.37;55.19;93389.63;5053476;28;20192;-85
2022/04/07 02:55:45;;;;;;;0.60;0.60;;;12.00;69.20;;;11.31;55.09;93386.09;5050181;28;20227;-85
2022/04/07 02:58:12;;;;;;;0.60;0.60;;;12.00;69.20;;;11.24;55.01;93379.41;5034101;28;20213;-86
2022/04/07 03:00:39;;;;;;;0.50;0.50;;;12.00;69.10;;;11.18;55.08;93389.81;5048696;28;20724;-85
2022/04/07 03:03:07;;;;;;;0.70;0.70;;;11.90;69.00;;;11.02;54.92;93380.03;5034270;28;20200;-86
2022/04/07 03:05:34;;;;;;;0.70;0.70;;;11.90;68.90;;;10.96;54.84;93386.19;5052154;28;20277;-85
2022/04/07 03:08:01;;;;;;;0.60;0.60;;;11.80;68.80;;;10.91;54.75;93400.00;5035380;28;20223;-86
2022/04/07 03:10:28;;;;;;;0.50;0.50;;;11.80;68.90;;;10.82;55.15;93393.53;5035343;28;20255;-85
2022/04/07 03:12:55;;;;;;;0.80;0.80;;;11.70;68.90;;;10.73;55.23;93393.88;5048540;28;20197;-86
2022/04/07 03:15:23;;;;;;;0.60;0.60;;;11.60;68.90;;;10.57;55.19;93378.88;5066566;28;20222;-85
2022/04/07 03:17:50;;;;;;;0.60;0.60;;;11.60;69.10;;;10.66;55.62;93387.97;5031550;28;20196;-86
2022/04/07 03:20:17;;;;;;;0.60;0.60;;;11.50;69.10;;;10.61;55.51;93390.47;5048137;28;20244;-86
2022/04/07 03:22:44;;;;;;;0.70;0.70;;;11.50;70.10;;;10.58;55.69;93388.31;5061959;28;20207;-85
2022/04/07 03:25:11;;;;;;;0.50;0.50;;;11.40;69.30;;;10.55;55.65;93389.56;5048475;28;20208;-85
2022/04/07 03:27:38;;;;;;;0.60;0.60;;;11.40;69.30;;;10.51;55.96;93388.44;5050812;28;20196;-85
2022/04/07 03:30:06;;;;;;;0.50;0.50;;;11.30;69.40;;;10.53;56.27;93385.59;5058051;28;20218;-85
2022/04/07 03:32:33;;;;;;;0.70;0.70;;;11.30;69.60;;;10.36;56.15;93357.47;5039054;28;20669;-86
2022/04/07 03:35:01;;;;;;;0.60;0.60;;;11.30;69.70;;;10.51;55.91;93385.81;5030638;28;20236;-86
2022/04/07 03:37:27;;;;;;;0.70;0.70;;;11.30;69.80;;;10.54;56.14;93384.56;5040807;28;20190;-84
2022/04/07 03:39:55;;;;;;;0.57;0.57;;;11.30;69.80;;;10.52;56.13;93384.78;5052055;28;20567;-85
2022/04/07 03:42:22;;;;;;;0.73;0.73;;;11.30;70.00;;;10.49;55.90;93368.72;5033992;28;20227;-86
2022/04/07 03:44:49;;;;;;;0.50;0.50;;;11.20;69.90;;;10.55;55.97;93381.69;5071660;28;20349;-85
2022/04/07 03:47:16;;;;;;;0.50;0.50;;;11.30;70.00;;;10.45;56.33;93365.75;5058010;28;20238;-85
2022/04/07 03:49:44;;;;;;;0.60;0.60;;;11.20;70.00;;;10.52;56.02;93369.06;5041077;28;20260;-85
2022/04/07 03:52:11;;;;;;;0.50;0.50;;;11.30;70.00;;;10.44;56.07;93377.28;5067387;28;20219;-85
2022/04/07 03:54:38;;;;;;;0.70;0.70;;;11.20;69.80;;;10.43;55.91;93388.00;5035606;28;20227;-85
2022/04/07 03:57:06;;;;;;;0.60;0.60;;;11.20;69.80;;;10.37;56.79;93387.06;5034829;28;20203;-86
2022/04/07 03:59:38;;;;;;;0.70;0.70;;;11.20;69.90;;;10.33;56.61;93385.91;5034804;28;20227;-85
2022/04/07 04:02:06;;;;;;;0.50;0.50;;;11.10;69.90;;;10.33;56.38;93388.53;5049837;28;20199;-85
2022/04/07 04:04:34;;;;;;;0.70;0.70;;;11.10;70.10;;;10.30;56.74;93386.34;5047302;28;20220;-85
2022/04/07 04:07:01;;;;;;;0.70;0.70;;;11.10;70.20;;;10.36;56.76;93385.44;5031779;28;20205;-86
2022/04/07 04:09:28;;;;;;;0.50;0.50;;;11.10;70.50;;;10.40;57.07;93384.78;5048245;28;20282;-85
2022/04/07 04:11:55;;;;;;;0.50;0.50;;;11.10;70.60;;;10.45;56.89;93376.25;5064527;28;20303;-85
2022/04/07 04:14:22;;;;;;;0.60;0.60;;;11.10;70.70;;;10.41;56.90;93373.28;5048936;28;20212;-84
2022/04/07 04:16:50;;;;;;;0.60;0.60;;;11.10;70.60;;;10.44;56.79;93384.34;5045729;28;20196;-85
2022/04/07 04:19:18;;;;;;;0.70;0.70;;;11.10;70.60;;;10.43;56.29;93380.13;5033953;28;20298;-85
2022/04/07 04:21:45;;;;;;;0.50;0.50;;;11.10;70.50;;;10.38;56.66;93386.84;5034690;28;20265;-83
2022/04/07 04:24:13;;;;;;;0.70;0.70;;;11.10;70.40;;;10.35;56.82;93384.66;5066985;28;20298;-84
2022/04/07 04:26:40;;;;;;;0.60;0.60;;;11.10;70.50;;;10.30;56.53;93366.22;5050810;28;20655;-84
2022/04/07 04:29:07;;;;;;;0.70;0.70;;;11.00;70.40;;;10.32;56.38;93376.44;5069605;28;20238;-85
2022/04/07 04:31:35;;;;;;;0.60;0.60;;;11.10;70.50;;;10.31;56.67;93380.09;5051090;28;20556;-84
2022/04/07 04:34:03;;;;;;;0.60;0.60;;;11.00;70.40;;;10.25;56.70;93379.16;5054578;28;20228;-84
2022/04/07 04:36:30;;;;;;;0.60;0.60;;;11.00;70.40;;;10.22;56.56;93377.03;5054890;28;20310;-84
2022/04/07 04:38:57;;;;;;;0.50;0.50;;;10.90;70.30;;;10.14;56.99;93379.97;5039957;28;20211;-84
2022/04/07 04:41:24;;;;;;;0.55;0.55;;;10.90;70.50;;;10.03;57.20;93368.44;5037607;28;20546;-85
2022/04/07 04:43:51;;;;;;;0.70;0.70;;;10.90;70.60;;;10.09;57.12;93383.25;5053898;28;20218;-84
2022/04/07 04:46:18;;;;;;;0.60;0.60;;;10.90;70.60;;;9.94;57.10;93366.16;5053704;28;20210;-84
2022/04/07 04:48:46;;;;;;;0.60;0.60;;;11.00;70.70;;;10.02;56.94;93374.72;5043402;28;20226;-85
2022/04/07 04:51:13;;;;;;;0.70;0.70;;;10.80;70.60;;;9.90;57.72;93365.03;5038469;28;20196;-84
2022/04/07 04:53:40;;;;;;;0.60;0.60;;;10.80;70.70;;;9.93;57.41;93375.03;5049722;28;20286;-85
2022/04/07 04:56:07;;;;;;;0.50;0.50;;;10.80;70.90;;;9.97;57.38;93375.38;5053601;28;20208;-87
2022/04/07 04:58:34;;;;;;;0.50;0.50;;;10.70;70.90;;;9.96;57.82;93376.44;5069980;28;20196;-83
2022/04/07 05:01:03;;;;;;;0.50;0.50;;;10.80;71.20;;;9.97;57.67;93380.63;5070997;28;20191;-84
2022/04/07 05:03:31;;;;;;;0.50;0.50;;;10.70;71.10;;;10.02;57.79;93382.56;5035039;28;20646;-84
2022/04/07 05:05:58;;;;;;;0.70;0.70;;;10.70;71.30;;;10.08;58.04;93386.91;5053903;28;20200;-84
2022/04/07 05:08:25;;;;;;;0.60;0.60;;;10.70;71.40;;;10.16;58.03;93376.09;5036758;28;20196;-83
2022/04/07 05:10:52;;;;;;;0.60;0.60;;;10.70;71.60;;;10.27;58.16;93376.34;5041853;28;20225;-84
2022/04/07 05:13:21;;;;;;;0.60;0.60;;;10.80;72.80;;;10.37;58.43;93379.22;5068784;28;20202;-83
2022/04/07 05:15:49;;;;;;;0.60;0.60;;;10.80;72.00;;;10.47;58.21;93376.81;5068291;28;20227;-84
2022/04/07 05:18:16;;;;;;;0.50;0.50;;;10.90;72.10;;;10.56;58.13;93372.81;5048964;28;20208;-84
2022/04/07 05:20:43;;;;;;;0.50;0.50;;;11.00;72.20;;;10.63;57.97;93372.72;5040617;28;20227;-84
2022/04/07 05:23:11;;;;;;;0.70;0.70;;;11.00;72.20;;;10.63;57.88;93361.41;5037241;28;20235;-82
2022/04/07 05:25:38;;;;;;;0.60;0.60;;;11.10;72.20;;;10.76;57.98;93373.50;5054015;28;20211;-84
2022/04/07 05:28:06;;;;;;;0.60;0.60;;;11.10;72.30;;;10.87;57.79;93375.28;5069145;28;20245;-84
2022/04/07 05:30:33;;;;;;;0.60;0.60;;;11.20;72.30;;;10.92;57.59;93375.38;5053678;28;20215;-84
2022/04/07 05:33:00;;;;;;;0.70;0.70;;;11.30;72.40;;;11.00;57.13;93376.88;5056627;28;20195;-84
2022/04/07 05:35:28;;;;;;;0.60;0.60;;;11.30;72.10;;;10.99;57.77;93377.88;5057094;28;20230;-84
2022/04/07 05:38:01;;;;;;;0.70;0.70;;;11.40;72.10;;;10.96;57.59;93384.41;5073193;28;20211;-84
2022/04/07 05:40:29;;;;;;;0.80;0.80;;;11.50;72.50;;;10.94;57.68;93377.78;5057501;28;20321;-83
2022/04/07 05:42:56;;;;;;;0.60;0.60;;;11.50;71.90;;;10.86;57.79;93368.44;5055015;28;20202;-84
2022/04/07 05:45:23;;;;;;;0.80;0.80;;;11.50;71.90;;;10.97;57.71;93375.47;5040919;28;20219;-83
2022/04/07 05:47:51;;;;;;;0.60;0.60;;;11.50;72.00;;;11.02;57.80;93380.84;5052763;28;20207;-83
2022/04/07 05:50:18;;;;;;;0.70;0.70;;;11.50;72.00;;;11.00;57.65;93371.63;5051773;28;20211;-84
2022/04/07 05:52:45;;;;;;;0.60;0.60;;;11.60;72.10;;;11.11;57.90;93383.91;5065066;28;20238;-83
2022/04/07 05:55:12;;;;;;;0.60;0.60;;;11.60;72.10;;;11.14;57.71;93380.78;5052678;28;20237;-84
2022/04/07 05:57:39;;;;;;;0.60;0.60;;;11.60;72.10;;;11.20;58.02;93379.88;5069720;28;20191;-84
2022/04/07 06:00:13;;;;;;;0.70;0.70;;;11.60;72.20;;;11.17;58.18;93361.19;5070211;28;20219;-84
2022/04/07 06:02:41;;;;;;;0.60;0.60;;;11.70;72.80;;;11.34;57.82;93377.78;5068296;28;20264;-85
2022/04/07 06:05:10;;;;;;;0.63;0.63;;;11.70;72.50;;;11.46;57.90;93385.59;5048396;28;20207;-84
2022/04/07 06:07:38;;;;;;;0.68;0.68;;;11.70;72.50;;;11.39;58.05;93358.69;5052182;28;20205;-85
2022/04/07 06:10:06;;;;;;;0.70;0.70;;;11.80;72.50;;;11.59;59.35;93381.09;5042820;28;20720;-85
2022/04/07 06:12:33;;;;;;;0.60;0.60;;;11.90;73.00;;;11.72;59.34;93390.50;5046448;28;20211;-84
2022/04/07 06:15:00;;;;;;;0.60;0.60;;;11.90;73.20;;;11.72;58.63;93365.03;5029931;28;20222;-85
2022/04/07 06:17:39;;;;;;;0.60;0.60;;;12.00;73.20;;;11.99;58.62;93382.84;5031628;28;20203;-84
2022/04/07 06:20:11;;;;;;;0.60;0.60;;;12.20;73.60;;;12.16;58.45;93382.84;5031968;28;20732;-85
2022/04/07 06:22:41;;;;;;;0.60;0.60;;;12.20;73.40;;;12.38;58.33;93376.84;5032529;28;20215;-84
2022/04/07 06:25:09;;;;;;;0.60;0.60;;;12.40;73.50;;;12.56;58.08;93370.53;5047202;28;20276;-85
2022/04/07 06:27:39;;;;;;;0.60;0.60;;;12.50;73.40;;;12.70;58.17;93373.63;5063241;28;20196;-85
2022/04/07 06:30:10;;;;;;;0.50;0.50;;;12.70;73.50;;;12.72;58.02;93355.75;5037513;28;20211;-86
2022/04/07 06:32:38;;;;;;;0.60;0.60;;;12.80;73.10;;;12.78;57.84;93371.38;5054108;28;20190;-85
2022/04/07 06:35:08;;;;;;;0.60;0.60;;;12.90;72.80;;;12.84;58.10;93366.16;5045889;28;20238;-85
2022/04/07 06:37:53;;;;;;;0.60;0.60;;;13.00;73.10;;;12.96;57.87;93375.56;5042593;28;20257;-85
2022/04/07 06:40:29;;;;;;;0.50;0.50;;;13.10;73.20;;;13.08;58.01;93364.09;5062592;28;20229;-85
2022/04/07 06:42:58;;;;;;;0.60;0.60;;;13.20;73.10;;;13.19;57.90;93360.53;5031827;28;20290;-85
2022/04/07 06:45:28;;;;;;;0.60;0.60;;;13.20;73.10;;;13.31;57.84;93363.03;5054786;28;20223;-85
2022/04/07 06:47:56;;;;;;;0.40;0.40;;;13.30;73.00;;;13.45;57.38;93361.66;5047657;28;20268;-85
2022/04/07 06:50:25;;;;;;;0.60;0.60;;;13.50;72.90;;;13.55;57.70;93363.59;5051064;28;20219;-85
2022/04/07 06:52:54;;;;;;;0.57;0.57;;;13.60;73.00;;;13.67;57.34;93363.44;5042373;28;20206;-85
2022/04/07 06:55:22;;;;;;;0.60;0.60;;;13.70;72.80;;;13.74;56.83;93364.03;5061873;28;20261;-85
2022/04/07 06:57:52;;;;;;;0.50;0.50;;;13.80;72.60;;;13.72;56.78;93350.31;5030758;28;20238;-85
2022/04/07 07:00:22;;;;;;;0.60;0.60;;;13.90;72.40;;;13.82;56.79;93361.97;5047345;28;20218;-85
2022/04/07 07:02:52;;;;;;;0.70;0.70;;;14.00;72.20;;;13.74;56.46;93353.50;5041696;28;20231;-85
2022/04/07 07:05:25;;;;;;;0.50;0.50;;;14.00;72.00;;;13.85;56.17;93346.47;5054180;28;20211;-85
2022/04/07 07:07:53;;;;;;;0.55;0.55;;;14.10;71.90;;;13.92;56.17;93351.53;5050248;28;20192;-85
2022/04/07 07:10:29;;;;;;;0.50;0.50;;;14.10;71.70;;;13.91;56.39;93331.50;5051041;28;20212;-85
2022/04/07 07:12:59;;;;;;;0.70;0.70;;;14.20;71.70;;;14.01;56.38;93347.41;5032384;28;20195;-85
2022/04/07 07:15:27;;;;;;;0.50;0.50;;;14.30;71.80;;;14.11;56.35;93340.59;5050627;28;20621;-84
2022/04/07 07:17:54;;;;;;;0.60;0.60;;;14.30;72.10;;;14.29;56.31;93347.34;5045404;28;20278;-85
2022/04/07 07:20:21;;;;;;;0.50;0.50;;;14.30;72.10;;;14.35;56.02;93333.91;5034023;28;20622;-85
2022/04/07 07:22:48;;;;;;;0.60;0.60;;;14.40;72.10;;;14.44;55.54;93339.53;5065570;28;20199;-85
2022/04/07 07:25:15;;;;;;;0.55;0.55;;;14.40;71.80;;;14.45;55.32;93321.84;5042091;28;20220;-84
2022/04/07 07:27:45;;;;;;;0.68;0.68;;;14.50;71.40;;;14.36;55.52;93303.06;5051092;28;20259;-84
2022/04/07 07:30:15;;;;;;;0.73;0.73;;;14.60;72.30;;;14.48;55.06;93313.44;5039446;28;20310;-85
2022/04/07 07:32:46;;;;;;;0.70;0.70;;;14.60;71.10;;;14.52;54.97;93317.91;5051015;28;20188;-84
2022/04/07 07:35:14;;;;;;;0.73;0.73;;;14.70;71.10;;;14.63;55.27;93318.00;5066019;28;20268;-85
2022/04/07 07:37:54;;;;;;;0.50;0.50;;;14.70;71.20;;;14.73;55.31;93324.16;5034528;28;20206;-85
2022/04/07 07:40:31;;;;;;;0.70;0.70;;;14.80;71.00;;;14.73;53.90;93312.78;5033899;28;20668;-85
2022/04/07 07:43:00;;;;;;;0.50;0.50;;;14.80;70.40;;;14.82;54.35;93319.16;5034003;28;20286;-85
2022/04/07 07:45:31;;;;;;;0.50;0.50;;;14.90;70.40;;;14.89;54.21;93318.91;5056694;28;20290;-84
2022/04/07 07:48:32;;;;;;;0.60;0.60;;;14.90;70.50;;;14.91;53.73;93314.19;5035415;28;20201;-86
2022/04/07 07:50:59;;;;;;;0.60;0.60;;;15.00;70.10;;;14.83;53.65;93302.28;5030250;28;20196;-84
2022/04/07 07:53:26;;;;;;;0.60;0.60;;;15.00;69.70;;;14.91;53.77;93322.09;5050234;28;20191;-83
2022/04/07 07:55:54;;;;;;;0.50;0.50;;;15.10;69.70;;;14.87;52.80;93313.91;5037945;28;20265;-83
2022/04/07 07:58:23;;;;;;;0.40;0.40;;;15.10;69.30;;;14.84;52.98;93303.88;5017844;28;20199;-81
2022/04/07 08:00:52;;;;;;;0.60;0.60;;;15.10;69.30;;;14.96;52.64;93311.56;5049974;28;20189;-83
2022/04/07 08:03:19;;;;;;;0.70;0.70;;;15.10;69.20;;;14.99;52.74;93302.31;5048349;28;20306;-83
2022/04/07 08:05:46;;;;;;;0.50;0.50;;;15.20;69.30;;;15.02;53.05;93299.97;5050584;28;20207;-84
2022/04/07 08:08:14;;;;;;;0.50;0.50;;;15.20;69.20;;;14.98;52.52;93292.84;5053513;28;20294;-83
2022/04/07 08:10:41;;;;;;;0.50;0.50;;;15.20;68.80;;;15.00;52.64;93290.72;5053666;28;20301;-83
2022/04/07 08:13:08;;;;;;;0.70;0.70;;;15.30;69.00;;;15.08;52.54;93286.78;5049286;28;20437;-84
2022/04/07 08:15:36;;;;;;;0.70;0.70;;;15.30;68.90;;;15.08;52.73;93278.88;5080304;28;20331;-84
2022/04/07 08:18:04;;;;;;;0.50;0.50;;;15.30;68.80;;;15.23;52.62;93281.53;5079765;28;20187;-83
2022/04/07 08:20:31;;;;;;;0.70;0.70;;;15.30;68.80;;;15.28;51.59;93307.16;5051109;28;20259;-84
2022/04/07 08:22:59;;;;;;;0.50;0.50;;;15.40;68.50;;;15.26;50.48;93299.50;5054642;28;20230;-84
2022/04/07 08:25:26;;;;;;;0.43;0.43;;;15.40;67.90;;;15.18;51.14;93281.53;5041825;28;20223;-83
2022/04/07 08:27:53;;;;;;;0.50;0.50;;;15.40;67.80;;;15.22;50.86;93295.78;5038000;28;20191;-84
2022/04/07 08:30:20;;;;;;;0.50;0.50;;;15.40;67.50;;;15.22;51.02;93293.16;5037596;28;20965;-84
2022/04/07 08:32:48;;;;;;;0.40;0.40;;;15.40;67.80;;;15.24;50.85;93295.56;5035763;28;20203;-84
2022/04/07 08:35:15;;;;;;;0.50;0.50;;;15.40;67.50;;;15.14;50.85;93280.47;5070474;28;20211;-83
2022/04/07 08:37:42;;;;;;;0.60;0.60;;;15.40;68.40;;;15.26;50.50;93307.44;5053799;28;20207;-84
2022/04/07 08:40:09;;;;;;;0.70;0.70;;;15.40;67.30;;;15.20;49.56;93300.56;5037803;28;20269;-84
2022/04/07 08:42:38;;;;;;;0.52;0.52;;;15.50;66.80;;;15.13;49.85;93298.16;5053956;28;20211;-84
2022/04/07 08:45:06;;;;;;;0.50;0.50;;;15.40;66.70;;;14.95;50.12;93293.34;5037928;28;20807;-83
2022/04/07 08:47:34;;;;;;;0.60;0.60;;;15.40;66.90;;;15.04;50.21;93300.50;5052315;28;20209;-83
2022/04/07 08:50:04;;;;;;;0.70;0.70;;;15.40;66.90;;;15.01;49.65;93298.41;5019536;28;20330;-83
2022/04/07 08:52:33;;;;;;;0.57;0.57;;;15.40;66.40;;;15.01;49.55;93297.59;5020354;28;20606;-83
2022/04/07 08:55:01;;;;;;;0.50;0.50;;;15.30;66.30;;;15.10;50.50;93295.22;5061581;28;20219;-83
2022/04/07 08:57:31;;;;;;;0.30;0.30;;;15.30;67.00;;;15.27;49.34;93295.81;5054154;28;20262;-85
2022/04/07 08:59:58;;;;;;;0.50;0.50;;;15.30;66.60;;;15.42;49.36;93300.34;5053603;28;20257;-84
2022/04/07 09:02:25;;;;;;;0.60;0.60;;;15.40;66.80;;;15.50;48.48;93301.66;5050960;28;20204;-84
2022/04/07 09:05:01;;;;;;;0.70;0.70;;;15.50;66.30;;;15.47;48.15;93284.47;5031066;28;20471;-84
2022/04/07 09:07:33;;;;;;;0.50;0.50;;;15.50;66.00;;;15.49;48.56;93292.94;5036160;28;20183;-85
2022/04/07 09:10:03;;;;;;;0.50;0.50;;;15.60;65.70;;;15.45;48.58;93291.91;5036554;28;20215;-84
2022/04/07 09:12:30;;;;;;;0.50;0.50;;;15.60;65.60;;;15.44;48.40;93273.66;5036262;28;20207;-85
2022/04/07 09:14:59;;;;;;;0.60;0.60;;;15.70;65.60;;;15.36;48.73;93262.53;5046972;28;20253;-85
2022/04/07 09:17:30;;;;;;;0.50;0.50;;;15.60;65.70;;;15.53;48.38;93274.72;5019064;28;20225;-84
2022/04/07 09:19:57;;;;;;;0.50;0.50;;;15.70;65.40;;;15.56;48.30;93270.75;5052717;28;20203;-84
2022/04/07 09:22:31;;;;;;;0.40;0.40;;;15.70;65.60;;;15.59;48.45;93271.03;5048500;28;20258;-84
2022/04/07 09:25:05;;;;;;;0.50;0.50;;;15.70;65.50;;;15.67;48.53;93261.78;5035790;28;20513;-85
2022/04/07 09:27:33;;;;;;;0.50;0.50;;;15.70;65.40;;;15.75;48.38;93268.41;5067326;28;20498;-84
2022/04/07 09:30:00;;;;;;;0.47;0.47;;;15.70;65.60;;;15.80;47.83;93268.41;5052267;28;20688;-85
2022/04/07 09:32:28;;;;;;;0.47;0.47;;;15.80;65.20;;;15.76;47.27;93269.97;5046745;28;20233;-84
2022/04/07 09:35:00;;;;;;;0.45;0.45;;;15.80;64.80;;;15.65;46.79;93269.19;5052363;28;20306;-85
2022/04/07 09:37:29;;;;;;;0.60;0.60;;;15.90;64.50;;;15.57;47.05;93265.19;5068941;28;20214;-85
2022/04/07 09:40:13;;;;;;;0.40;0.40;;;15.90;64.40;;;15.50;47.13;93264.66;5066016;28;20212;-85
2022/04/07 09:42:41;;;;;;;0.50;0.50;;;15.80;64.20;;;15.50;47.66;93252.25;5065947;28;20218;-85
2022/04/07 09:45:14;;;;;;;0.60;0.60;;;15.80;64.80;;;15.55;47.67;93237.47;5033576;28;20242;-85
2022/04/07 09:47:45;;;;;;;0.50;0.50;;;15.80;64.90;;;15.67;47.36;93241.44;5049722;28;20286;-84
2022/04/07 09:50:29;;;;;;;0.70;0.70;;;15.80;64.80;;;15.72;46.86;93231.91;5046869;28;20212;-85
2022/04/07 09:53:06;;;;;;;0.40;0.40;;;15.80;64.50;;;15.86;46.70;93235.63;5036884;28;20646;-85
2022/04/07 09:55:43;;;;;;;0.50;0.50;;;15.90;64.30;;;16.00;46.77;93207.59;5020246;28;20223;-85
2022/04/07 09:58:12;;;;;;;0.50;0.50;;;15.90;64.50;;;16.25;46.74;93216.53;5036570;28;20183;-85
2022/04/07 10:00:40;;;;;;;0.50;0.50;;;16.00;64.80;;;16.45;45.76;93205.09;5050206;28;20226;-85
2022/04/07 10:03:10;;;;;;;0.50;0.50;;;16.10;64.00;;;16.58;45.72;93201.06;5053244;28;20207;-85
2022/04/07 10:05:38;;;;;;;0.50;0.50;;;16.30;64.10;;;16.52;44.91;93178.31;5036544;28;20229;-84
2022/04/07 10:08:08;;;;;;;0.50;0.50;;;16.30;63.60;;;16.63;45.28;93189.66;5051569;28;20196;-85
2022/04/07 10:10:35;;;;;;;0.50;0.50;;;16.50;63.50;;;16.64;45.08;93186.75;5071212;28;20629;-85
2022/04/07 10:13:03;;;;;;;0.50;0.50;;;16.50;63.20;;;16.45;43.61;93169.88;5044388;28;20192;-85
2022/04/07 10:15:30;;;;;;;0.50;0.50;;;16.60;62.30;;;16.43;43.53;93178.09;5040214;28;20701;-85
2022/04/07 10:18:05;;;;;;;0.60;0.60;;;16.60;61.70;;;16.31;43.50;93164.41;5048646;28;20588;-85
2022/04/07 10:20:37;;;;;;;0.47;0.47;;;16.50;61.70;;;16.25;44.00;93171.56;5053721;28;20226;-85
2022/04/07 10:24:08;;;;;;;0.60;0.60;;;16.50;61.70;;;16.21;44.16;93178.44;5032468;28;20200;-85
2022/04/07 10:26:35;;;;;;;0.57;0.57;;;16.50;61.90;;;16.27;43.64;93169.44;5063554;28;20203;-84
2022/04/07 10:29:03;;;;;;;0.50;0.50;;;16.50;61.80;;;16.45;43.90;93154.81;5067538;28;20677;-84